createdAt,value
2018-12-29T00:00:45.426Z,100905.42
2018-12-29T00:03:18.744Z,100910.27
2018-12-29T00:05:51.804Z,100910.96
2018-12-29T00:08:24.950Z,100913.58
2018-12-29T00:11:00.437Z,100916.88
2018-12-29T00:13:32.590Z,100911.28
2018-12-29T00:16:05.642Z,100911.28
2018-12-29T00:18:38.907Z,100909.96
2018-12-29T00:21:12.079Z,100924.89
2018-12-29T00:23:45.041Z,100919.34
2018-12-29T00:26:18.112Z,100924.81
2018-12-29T00:28:51.533Z,100924.81
2018-12-29T00:31:24.670Z,100920.11
2018-12-29T00:33:57.776Z,100926.88
2018-12-29T00:36:33.491Z,100920.53
2018-12-29T00:39:07.580Z,100926.77
2018-12-29T00:41:40.522Z,100926.77
2018-12-29T00:44:13.486Z,100919.58
2018-12-29T00:46:46.240Z,100924.33
2018-12-29T00:49:19.121Z,100920.82
2018-12-29T00:51:52.211Z,100930.16
2018-12-29T00:54:26.475Z,100930.16
2018-12-29T00:56:59.756Z,100918.39
2018-12-29T00:59:33.324Z,100920.48
2018-12-29T01:02:06.629Z,100914.52
2018-12-29T01:04:39.611Z,100922.29
2018-12-29T01:07:12.692Z,100917.59
2018-12-29T01:09:45.736Z,100917.59
2018-12-29T01:12:18.593Z,100918.13
2018-12-29T01:14:51.807Z,100931.94
2018-12-29T01:17:24.855Z,100931.94
2018-12-29T01:19:57.962Z,100930.23
2018-12-29T01:22:30.879Z,100937.19
2018-12-29T01:25:03.988Z,100934.83
2018-12-29T01:27:37.042Z,100934.83
2018-12-29T01:30:10.396Z,100927.78
2018-12-29T01:32:43.462Z,100926.98
2018-12-29T01:35:16.561Z,100924.53
2018-12-29T01:37:49.602Z,100922.09
2018-12-29T01:40:22.602Z,100922.09
2018-12-29T01:42:55.614Z,100918.43
2018-12-29T01:45:28.699Z,100923.50
2018-12-29T01:48:01.892Z,100923.50
2018-12-29T01:50:34.977Z,100914.37
2018-12-29T01:53:08.060Z,100909.52
2018-12-29T01:55:41.015Z,100909.52
2018-12-29T01:58:14.218Z,100916.14
2018-12-29T02:00:47.250Z,100918.32
2018-12-29T02:03:20.402Z,100923.41
2018-12-29T02:05:53.592Z,100923.41
2018-12-29T02:08:26.732Z,100923.33
2018-12-29T02:10:59.909Z,100926.80
2018-12-29T02:13:32.857Z,100928.50
2018-12-29T02:16:06.047Z,100928.28
2018-12-29T02:18:39.148Z,100926.31
2018-12-29T02:21:12.022Z,100926.31
2018-12-29T02:23:45.020Z,100927.26
2018-12-29T02:26:18.095Z,100915.48
2018-12-29T02:28:51.199Z,100915.48
2018-12-29T02:31:24.307Z,100927.05
2018-12-29T02:33:57.501Z,100927.59
2018-12-29T02:36:30.727Z,100920.77
2018-12-29T02:39:03.759Z,100919.49
2018-12-29T02:41:36.970Z,100919.95
2018-12-29T02:44:11.030Z,100921.00
2018-12-29T02:46:44.308Z,100923.02
2018-12-29T02:49:17.343Z,100916.34
2018-12-29T02:51:50.606Z,100922.95
2018-12-29T02:54:23.667Z,100919.55
2018-12-29T02:56:56.806Z,100919.98
2018-12-29T02:59:29.798Z,100916.95
2018-12-29T03:02:02.591Z,100919.72
2018-12-29T03:04:35.297Z,100924.27
2018-12-29T03:07:07.981Z,100918.65
2018-12-29T03:09:41.654Z,100913.36
2018-12-29T03:12:14.569Z,100913.88
2018-12-29T03:14:47.536Z,100908.95
2018-12-29T03:17:20.841Z,100907.36
2018-12-29T03:19:54.273Z,100901.56
2018-12-29T03:22:27.262Z,100891.99
2018-12-29T03:25:00.490Z,100902.77
2018-12-29T03:27:33.689Z,100899.56
2018-12-29T03:30:06.926Z,100895.23
2018-12-29T03:32:40.210Z,100892.78
2018-12-29T03:35:13.378Z,100889.48
2018-12-29T03:37:46.608Z,100891.66
2018-12-29T03:40:19.931Z,100889.07
2018-12-29T03:42:53.175Z,100895.73
2018-12-29T03:45:26.210Z,100889.09
2018-12-29T03:47:59.221Z,100878.39
2018-12-29T03:50:33.046Z,100880.16
2018-12-29T03:53:12.071Z,100880.14
2018-12-29T03:55:45.978Z,100880.55
2018-12-29T03:58:36.598Z,100877.38
2018-12-29T04:01:09.579Z,100879.44
2018-12-29T04:03:42.609Z,100884.84
2018-12-29T04:06:15.779Z,100889.92
2018-12-29T04:09:23.308Z,100887.42
2018-12-29T04:11:56.397Z,100883.54
2018-12-29T04:14:29.389Z,100877.33
2018-12-29T04:17:02.295Z,100874.37
2018-12-29T04:19:35.130Z,100876.48
2018-12-29T04:22:08.478Z,100878.81
2018-12-29T04:24:41.421Z,100876.77
2018-12-29T04:27:14.271Z,100875.19
2018-12-29T04:29:47.129Z,100872.36
2018-12-29T04:32:19.855Z,100869.08
2018-12-29T04:34:52.660Z,100867.73
2018-12-29T04:37:28.726Z,100870.79
2018-12-29T04:40:01.799Z,100865.95
2018-12-29T04:42:34.800Z,100881.07
2018-12-29T04:45:07.843Z,100877.63
2018-12-29T04:47:40.801Z,100877.52
2018-12-29T04:50:14.757Z,100882.55
2018-12-29T04:52:47.886Z,100884.50
2018-12-29T04:55:21.051Z,100881.09
2018-12-29T04:57:54.474Z,100881.05
2018-12-29T05:00:29.274Z,100889.94
2018-12-29T05:03:03.730Z,100896.35
2018-12-29T05:05:37.148Z,100885.16
2018-12-29T05:08:10.427Z,100887.31
2018-12-29T05:10:44.151Z,100884.94
2018-12-29T05:13:17.527Z,100887.50
2018-12-29T05:15:50.669Z,100886.84
2018-12-29T05:18:23.388Z,100890.29
2018-12-29T05:20:56.392Z,100893.12
2018-12-29T05:23:30.104Z,100890.80
2018-12-29T05:26:04.228Z,100901.42
2018-12-29T05:28:37.918Z,100906.80
2018-12-29T05:31:11.365Z,100912.09
2018-12-29T05:33:44.458Z,100918.08
2018-12-29T05:36:18.116Z,100919.31
2018-12-29T05:38:51.250Z,100932.27
2018-12-29T05:41:24.919Z,100928.41
2018-12-29T05:43:58.627Z,100920.48
2018-12-29T05:46:31.476Z,100918.31
2018-12-29T05:49:04.606Z,100920.23
2018-12-29T05:51:38.687Z,100916.02
2018-12-29T05:54:11.802Z,100919.70
2018-12-29T05:56:44.764Z,100919.80
2018-12-29T05:59:17.926Z,100924.33
2018-12-29T06:01:50.999Z,100928.44
2018-12-29T06:04:24.730Z,100928.11
2018-12-29T06:06:57.888Z,100929.97
2018-12-29T06:09:30.804Z,100937.64
2018-12-29T06:12:03.908Z,100934.22
2018-12-29T06:14:36.966Z,100946.75
2018-12-29T06:17:10.024Z,100941.98
2018-12-29T06:19:43.145Z,100953.00
2018-12-29T06:22:16.421Z,100945.47
2018-12-29T06:24:49.485Z,100948.72
2018-12-29T06:27:22.607Z,100947.95
2018-12-29T06:29:55.670Z,100947.00
2018-12-29T06:32:28.530Z,100955.05
2018-12-29T06:35:01.934Z,100956.78
2018-12-29T06:37:36.262Z,100964.52
2018-12-29T06:40:09.756Z,100955.28
2018-12-29T06:42:43.055Z,100963.27
2018-12-29T06:45:16.184Z,100957.34
2018-12-29T06:47:49.811Z,100957.34
2018-12-29T06:50:22.837Z,100974.17
2018-12-29T06:52:56.040Z,100978.56
2018-12-29T06:55:29.253Z,100988.08
2018-12-29T06:58:02.761Z,100985.95
2018-12-29T07:00:36.735Z,100992.22
2018-12-29T07:03:10.254Z,100992.13
2018-12-29T07:05:43.712Z,100991.92
2018-12-29T07:08:16.926Z,100988.97
2018-12-29T07:10:50.016Z,100983.22
2018-12-29T07:13:22.951Z,100989.80
2018-12-29T07:15:55.976Z,100998.91
2018-12-29T07:18:29.150Z,100994.42
2018-12-29T07:21:02.153Z,100992.16
2018-12-29T07:23:35.473Z,100993.73
2018-12-29T07:26:08.792Z,100992.70
2018-12-29T07:28:41.964Z,100996.41
2018-12-29T07:31:16.223Z,101002.44
2018-12-29T07:33:51.819Z,101010.41
2018-12-29T07:36:25.124Z,101007.51
2018-12-29T07:38:58.368Z,101019.23
2018-12-29T07:41:33.093Z,101019.34
2018-12-29T07:44:08.306Z,101008.62
2018-12-29T07:46:49.545Z,101020.28
2018-12-29T07:49:19.907Z,101006.21
2018-12-29T07:51:54.099Z,101017.33
2018-12-29T07:54:27.412Z,101023.73
2018-12-29T07:57:00.339Z,101022.59
2018-12-29T07:59:34.487Z,101021.19
2018-12-29T08:02:07.714Z,101018.70
2018-12-29T08:04:40.738Z,101025.61
2018-12-29T08:07:14.195Z,101023.16
2018-12-29T08:09:47.347Z,101013.27
2018-12-29T08:12:20.367Z,101019.70
2018-12-29T08:14:53.468Z,101020.08
2018-12-29T08:17:26.597Z,101018.67
2018-12-29T08:19:59.850Z,101015.28
2018-12-29T08:22:33.111Z,101013.02
2018-12-29T08:25:06.435Z,101010.92
2018-12-29T08:27:40.708Z,101011.52
2018-12-29T08:30:13.874Z,101014.93
2018-12-29T08:32:47.005Z,101012.08
2018-12-29T08:35:20.403Z,101009.23
2018-12-29T08:37:53.552Z,101013.77
2018-12-29T08:40:27.554Z,101017.86
2018-12-29T08:43:01.507Z,101024.32
2018-12-29T08:45:35.621Z,101024.19
2018-12-29T08:48:10.879Z,101024.91
2018-12-29T08:50:44.527Z,101020.65
2018-12-29T08:53:19.036Z,101026.27
2018-12-29T08:55:54.853Z,101030.75
2018-12-29T08:58:30.684Z,101020.03
2018-12-29T09:01:04.765Z,101029.90
2018-12-29T09:03:39.143Z,101030.55
2018-12-29T09:06:13.196Z,101031.47
2018-12-29T09:08:46.938Z,101034.63
2018-12-29T09:11:21.267Z,101035.36
2018-12-29T09:14:14.404Z,101032.86
2018-12-29T09:16:47.548Z,101037.19
2018-12-29T09:19:27.010Z,101040.88
2018-12-29T09:21:55.056Z,101047.56
2018-12-29T09:24:28.174Z,101045.69
2018-12-29T09:27:03.594Z,101039.19
2018-12-29T09:29:35.472Z,101039.37
2018-12-29T09:32:08.526Z,101036.73
2018-12-29T09:34:41.541Z,101037.88
2018-12-29T09:37:14.683Z,101041.75
2018-12-29T09:39:47.715Z,101040.83
2018-12-29T09:42:20.637Z,101045.44
2018-12-29T09:44:53.606Z,101047.66
2018-12-29T09:47:26.397Z,101057.72
2018-12-29T09:50:00.418Z,101050.20
2018-12-29T09:52:34.074Z,101047.88
2018-12-29T09:55:16.670Z,101049.75
2018-12-29T09:57:50.517Z,101047.77
2018-12-29T10:00:24.599Z,101058.30
2018-12-29T10:03:00.599Z,101059.75
2018-12-29T10:05:34.068Z,101055.67
2018-12-29T10:08:07.628Z,101059.43
2018-12-29T10:10:44.034Z,101067.34
2018-12-29T10:13:17.604Z,101066.19
2018-12-29T10:15:51.764Z,101073.38
2018-12-29T10:18:25.081Z,101071.59
2018-12-29T10:20:58.460Z,101068.20
2018-12-29T10:23:32.143Z,101078.28
2018-12-29T10:26:06.641Z,101078.19
2018-12-29T10:28:40.143Z,101077.98
2018-12-29T10:31:13.254Z,101079.67
2018-12-29T10:33:46.630Z,101086.73
2018-12-29T10:36:19.661Z,101079.30
2018-12-29T10:38:52.681Z,101084.77
2018-12-29T10:41:26.308Z,101075.64
2018-12-29T10:43:59.442Z,101079.11
2018-12-29T10:46:32.563Z,101072.45
2018-12-29T10:49:05.825Z,101081.08
2018-12-29T10:51:38.931Z,101073.56
2018-12-29T10:54:12.142Z,101078.28
2018-12-29T10:56:45.400Z,101078.74
2018-12-29T10:59:18.509Z,101079.98
2018-12-29T11:01:51.944Z,101087.97
2018-12-29T11:04:25.186Z,101080.73
2018-12-29T11:07:18.141Z,101084.19
2018-12-29T11:09:51.429Z,101084.57
2018-12-29T11:12:24.560Z,101081.84
2018-12-29T11:14:57.787Z,101082.88
2018-12-29T11:17:30.790Z,101084.66
2018-12-29T11:20:06.604Z,101088.81
2018-12-29T11:22:39.788Z,101090.98
2018-12-29T11:25:13.404Z,101082.78
2018-12-29T11:27:46.870Z,101081.55
2018-12-29T11:30:20.054Z,101076.44
2018-12-29T11:32:53.184Z,101084.80
2018-12-29T11:35:29.042Z,101091.67
2018-12-29T11:38:01.314Z,101085.06
2018-12-29T11:40:34.448Z,101086.86
2018-12-29T11:43:07.795Z,101086.84
2018-12-29T11:45:40.822Z,101083.08
2018-12-29T11:48:13.787Z,101086.47
2018-12-29T11:50:46.920Z,101086.38
2018-12-29T11:53:19.958Z,101088.55
2018-12-29T11:55:53.077Z,101086.39
2018-12-29T11:58:26.508Z,101095.23
2018-12-29T12:00:59.587Z,101098.04
2018-12-29T12:03:32.552Z,101100.20
2018-12-29T12:06:05.472Z,101105.77
2018-12-29T12:08:39.070Z,101102.83
2018-12-29T12:11:12.201Z,101109.30
2018-12-29T12:13:45.235Z,101106.91
2018-12-29T12:16:18.296Z,101116.87
2018-12-29T12:18:51.430Z,101119.27
2018-12-29T12:21:24.520Z,101116.83
2018-12-29T12:23:58.733Z,101120.44
2018-12-29T12:26:32.174Z,101127.46
2018-12-29T12:29:05.080Z,101125.99
2018-12-29T12:31:39.618Z,101127.41
2018-12-29T12:34:12.985Z,101127.89
2018-12-29T12:36:46.216Z,101133.84
2018-12-29T12:39:19.308Z,101128.94
2018-12-29T12:41:52.443Z,101127.18
2018-12-29T12:44:25.998Z,101133.48
2018-12-29T12:46:59.663Z,101130.74
2018-12-29T12:49:32.894Z,101133.42
2018-12-29T12:52:06.108Z,101121.66
2018-12-29T12:54:39.348Z,101134.16
2018-12-29T12:57:12.633Z,101131.43
2018-12-29T12:59:46.022Z,101135.92
2018-12-29T13:02:19.163Z,101145.19
2018-12-29T13:04:52.158Z,101149.78
2018-12-29T13:07:25.581Z,101149.89
2018-12-29T13:09:58.945Z,101152.03
2018-12-29T13:12:32.675Z,101149.81
2018-12-29T13:15:05.884Z,101151.02
2018-12-29T13:17:41.767Z,101144.80
2018-12-29T13:20:14.921Z,101152.41
2018-12-29T13:22:48.295Z,101153.16
2018-12-29T13:25:21.570Z,101150.88
2018-12-29T13:27:54.679Z,101162.52
2018-12-29T13:30:27.687Z,101166.47
2018-12-29T13:33:00.591Z,101170.71
2018-12-29T13:35:33.849Z,101164.72
2018-12-29T13:38:07.734Z,101172.57
2018-12-29T13:40:40.940Z,101173.89
2018-12-29T13:43:14.378Z,101180.00
2018-12-29T13:45:47.544Z,101178.38
2018-12-29T13:48:21.204Z,101181.00
2018-12-29T13:50:55.059Z,101187.27
2018-12-29T13:53:28.433Z,101180.23
2018-12-29T13:56:01.680Z,101183.94
2018-12-29T13:58:34.712Z,101178.48
2018-12-29T14:01:07.788Z,101181.77
2018-12-29T14:03:41.277Z,101182.94
2018-12-29T14:06:14.195Z,101180.04
2018-12-29T14:08:47.160Z,101180.27
2018-12-29T14:11:20.209Z,101177.33
2018-12-29T14:13:53.412Z,101176.09
2018-12-29T14:16:34.023Z,101181.97
2018-12-29T14:19:07.189Z,101179.72
2018-12-29T14:21:40.359Z,101179.72
2018-12-29T14:24:13.713Z,101175.70
2018-12-29T14:26:46.934Z,101179.36
2018-12-29T14:29:19.961Z,101179.52
2018-12-29T14:31:52.748Z,101185.76
2018-12-29T14:34:25.473Z,101184.32
2018-12-29T14:36:58.509Z,101184.98
2018-12-29T14:39:31.539Z,101185.27
2018-12-29T14:42:07.858Z,101189.67
2018-12-29T14:44:40.992Z,101190.30
2018-12-29T14:47:14.161Z,101186.13
2018-12-29T14:49:47.341Z,101180.84
2018-12-29T14:52:20.421Z,101176.31
2018-12-29T14:54:53.513Z,101180.38
2018-12-29T14:57:26.538Z,101184.42
2018-12-29T14:59:59.509Z,101177.56
2018-12-29T15:02:32.734Z,101181.98
2018-12-29T15:05:05.791Z,101188.63
2018-12-29T15:07:38.949Z,101187.17
2018-12-29T15:10:11.732Z,101194.41
2018-12-29T15:12:44.774Z,101194.08
2018-12-29T15:15:17.954Z,101194.13
2018-12-29T15:17:51.019Z,101190.52
2018-12-29T15:20:24.625Z,101193.95
2018-12-29T15:22:57.949Z,101194.14
2018-12-29T15:25:31.024Z,101194.26
2018-12-29T15:28:04.064Z,101192.70
2018-12-29T15:30:37.310Z,101202.00
2018-12-29T15:33:10.483Z,101201.60
2018-12-29T15:35:43.785Z,101203.45
2018-12-29T15:38:16.562Z,101206.86
2018-12-29T15:40:49.552Z,101209.05
2018-12-29T15:43:22.541Z,101212.26
2018-12-29T15:45:55.669Z,101213.77
2018-12-29T15:48:29.022Z,101207.22
2018-12-29T15:51:02.145Z,101215.16
2018-12-29T15:53:35.158Z,101219.87
2018-12-29T15:56:08.176Z,101224.47
2018-12-29T15:58:41.343Z,101224.72
2018-12-29T16:01:14.963Z,101223.02
2018-12-29T16:03:47.924Z,101221.89
2018-12-29T16:06:21.015Z,101221.97
2018-12-29T16:08:53.993Z,101223.61
2018-12-29T16:11:27.777Z,101221.13
2018-12-29T16:14:01.157Z,101218.62
2018-12-29T16:16:34.238Z,101221.14
2018-12-29T16:19:07.342Z,101217.97
2018-12-29T16:21:40.096Z,101210.81
2018-12-29T16:24:14.532Z,101212.73
2018-12-29T16:26:47.485Z,101213.91
2018-12-29T16:29:20.673Z,101210.41
2018-12-29T16:31:53.758Z,101206.81
2018-12-29T16:34:27.113Z,101209.70
2018-12-29T16:37:00.250Z,101210.48
2018-12-29T16:39:33.770Z,101210.69
2018-12-29T16:42:06.870Z,101210.89
2018-12-29T16:44:40.041Z,101220.60
2018-12-29T16:47:13.582Z,101226.44
2018-12-29T16:49:46.413Z,101212.46
2018-12-29T16:52:19.667Z,101212.47
2018-12-29T16:54:53.353Z,101230.03
2018-12-29T16:57:26.529Z,101232.34
2018-12-29T16:59:59.654Z,101232.94
2018-12-29T17:02:32.701Z,101232.94
2018-12-29T17:05:06.546Z,101243.05
2018-12-29T17:07:39.611Z,101243.05
2018-12-29T17:10:12.911Z,101242.20
2018-12-29T17:12:46.058Z,101241.38
2018-12-29T17:15:19.200Z,101248.19
2018-12-29T17:17:52.301Z,101253.04
2018-12-29T17:20:25.370Z,101253.89
2018-12-29T17:22:58.657Z,101250.24
2018-12-29T17:25:32.112Z,101245.62
2018-12-29T17:28:05.362Z,101245.62
2018-12-29T17:30:38.537Z,101251.73
2018-12-29T17:33:11.989Z,101257.13
2018-12-29T17:35:45.058Z,101263.22
2018-12-29T17:38:18.662Z,101266.25
2018-12-29T17:40:51.582Z,101265.08
2018-12-29T17:43:24.803Z,101278.20
2018-12-29T17:45:57.899Z,101268.02
2018-12-29T17:48:31.175Z,101270.31
2018-12-29T17:51:04.307Z,101275.50
2018-12-29T17:53:37.869Z,101268.70
2018-12-29T17:56:11.317Z,101286.66
2018-12-29T17:58:44.213Z,101282.95
2018-12-29T18:01:17.338Z,101291.69
2018-12-29T18:03:50.463Z,101280.81
2018-12-29T18:06:23.604Z,101291.84
2018-12-29T18:08:57.048Z,101291.84
2018-12-29T18:11:30.300Z,101289.59
2018-12-29T18:14:03.370Z,101292.97
2018-12-29T18:16:36.882Z,101292.25
2018-12-29T18:19:10.091Z,101292.45
2018-12-29T18:21:43.361Z,101292.45
2018-12-29T18:24:16.532Z,101301.84
2018-12-29T18:26:49.705Z,101296.88
2018-12-29T18:29:22.875Z,101293.22
2018-12-29T18:31:56.201Z,101297.94
2018-12-29T18:34:29.713Z,101297.94
2018-12-29T18:37:02.758Z,101297.80
2018-12-29T18:39:35.670Z,101307.75
2018-12-29T18:42:08.729Z,101307.78
2018-12-29T18:44:41.807Z,101311.19
2018-12-29T18:47:14.869Z,101311.19
2018-12-29T18:49:47.973Z,101312.80
2018-12-29T18:52:20.985Z,101310.80
2018-12-29T18:54:54.143Z,101310.80
2018-12-29T18:57:27.317Z,101301.92
2018-12-29T19:00:03.815Z,101301.92
2018-12-29T19:02:36.741Z,101298.09
2018-12-29T19:05:09.950Z,101301.85
2018-12-29T19:07:43.109Z,101296.60
2018-12-29T19:10:16.237Z,101295.09
2018-12-29T19:12:49.300Z,101289.27
2018-12-29T19:15:22.696Z,101290.52
2018-12-29T19:17:56.058Z,101288.28
2018-12-29T19:20:29.328Z,101295.07
2018-12-29T19:23:03.468Z,101301.76
2018-12-29T19:25:36.527Z,101306.31
2018-12-29T19:28:09.761Z,101300.67
2018-12-29T19:31:02.779Z,101301.20
2018-12-29T19:33:36.305Z,101294.42
2018-12-29T19:36:09.730Z,101294.87
2018-12-29T19:38:42.924Z,101291.88
2018-12-29T19:41:16.800Z,101291.59
2018-12-29T19:43:50.097Z,101286.44
2018-12-29T19:46:23.678Z,101282.31
2018-12-29T19:48:56.701Z,101280.38
2018-12-29T19:51:30.079Z,101291.11
2018-12-29T19:54:03.231Z,101293.16
2018-12-29T19:56:36.487Z,101284.84
2018-12-29T19:59:09.881Z,101293.55
2018-12-29T20:01:43.199Z,101294.52
2018-12-29T20:04:16.643Z,101294.24
2018-12-29T20:06:49.774Z,101284.15
2018-12-29T20:09:22.812Z,101286.07
2018-12-29T20:11:55.649Z,101290.94
2018-12-29T20:14:28.578Z,101287.06
2018-12-29T20:17:01.638Z,101288.31
2018-12-29T20:19:34.469Z,101293.48
2018-12-29T20:22:07.555Z,101294.50
2018-12-29T20:24:40.617Z,101294.73
2018-12-29T20:27:13.600Z,101302.88
2018-12-29T20:29:46.634Z,101291.22
2018-12-29T20:32:22.878Z,101301.59
2018-12-29T20:34:55.584Z,101303.58
2018-12-29T20:37:28.223Z,101314.17
2018-12-29T20:40:00.998Z,101311.77
2018-12-29T20:42:34.267Z,101310.52
2018-12-29T20:45:07.500Z,101310.61
2018-12-29T20:47:40.540Z,101314.05
2018-12-29T20:50:13.494Z,101318.52
2018-12-29T20:52:46.722Z,101319.41
2018-12-29T20:55:19.718Z,101319.25
2018-12-29T20:57:52.696Z,101326.02
2018-12-29T21:00:25.678Z,101323.01
2018-12-29T21:02:58.878Z,101332.16
2018-12-29T21:05:32.284Z,101331.77
2018-12-29T21:08:05.415Z,101328.63
2018-12-29T21:10:38.487Z,101331.98
2018-12-29T21:13:12.222Z,101320.53
2018-12-29T21:15:46.552Z,101331.19
2018-12-29T21:18:19.484Z,101333.53
2018-12-29T21:20:52.734Z,101335.02
2018-12-29T21:23:26.261Z,101335.48
2018-12-29T21:26:01.203Z,101338.22
2018-12-29T21:28:33.954Z,101335.52
2018-12-29T21:31:07.061Z,101343.59
2018-12-29T21:33:40.267Z,101346.66
2018-12-29T21:36:13.257Z,101347.84
2018-12-29T21:38:46.419Z,101348.33
2018-12-29T21:41:19.703Z,101348.76
2018-12-29T21:43:53.249Z,101352.73
2018-12-29T21:46:26.359Z,101366.66
2018-12-29T21:48:59.510Z,101367.17
2018-12-29T21:51:32.978Z,101371.17
2018-12-29T21:54:07.667Z,101371.33
2018-12-29T21:56:40.441Z,101364.83
2018-12-29T21:59:15.303Z,101377.61
2018-12-29T22:01:47.702Z,101373.28
2018-12-29T22:04:21.106Z,101383.03
2018-12-29T22:06:54.302Z,101385.52
2018-12-29T22:09:27.360Z,101381.33
2018-12-29T22:12:00.493Z,101390.48
2018-12-29T22:14:33.899Z,101385.91
2018-12-29T22:17:07.566Z,101387.67
2018-12-29T22:19:40.637Z,101390.60
2018-12-29T22:22:13.758Z,101396.04
2018-12-29T22:24:47.264Z,101395.24
2018-12-29T22:27:20.284Z,101399.77
2018-12-29T22:29:53.737Z,101395.89
2018-12-29T22:32:26.745Z,101398.80
2018-12-29T22:35:00.042Z,101402.98
2018-12-29T22:37:33.242Z,101397.35
2018-12-29T22:40:06.866Z,101398.66
2018-12-29T22:42:39.734Z,101408.16
2018-12-29T22:45:15.023Z,101409.16
2018-12-29T22:47:47.251Z,101412.59
2018-12-29T22:50:20.162Z,101406.85
2018-12-29T22:52:53.320Z,101408.02
2018-12-29T22:55:26.640Z,101411.00
2018-12-29T22:57:59.779Z,101410.89
2018-12-29T23:00:32.933Z,101412.91
2018-12-29T23:03:06.171Z,101421.30
2018-12-29T23:05:39.183Z,101417.34
2018-12-29T23:08:12.349Z,101416.42
2018-12-29T23:10:45.360Z,101421.47
2018-12-29T23:13:18.343Z,101427.84
2018-12-29T23:15:51.381Z,101427.48
2018-12-29T23:18:24.381Z,101425.38
2018-12-29T23:20:57.421Z,101427.30
2018-12-29T23:23:30.483Z,101428.85
2018-12-29T23:26:03.556Z,101439.69
2018-12-29T23:28:36.786Z,101441.19
2018-12-29T23:31:10.368Z,101444.31
2018-12-29T23:33:43.563Z,101444.40
2018-12-29T23:36:16.743Z,101447.36
2018-12-29T23:38:49.745Z,101448.32
2018-12-29T23:41:22.669Z,101451.49
2018-12-29T23:43:55.976Z,101454.62
2018-12-29T23:46:28.712Z,101457.98
2018-12-29T23:49:01.757Z,101453.25
2018-12-29T23:51:34.796Z,101464.09
2018-12-29T23:54:07.873Z,101458.85
2018-12-29T23:56:41.160Z,101457.09
2018-12-29T23:59:14.281Z,101461.98
